JST681 YPAD-YMHB
Flight info
| Callsign | JST681 |
|---|---|
| Flight time | 1h 39m |
| Altitude | 37000 |
| Route | AD V255 BENDO Y218 GRACY T234 URBEN Y557 MORGO V33 TASUM |
| Aircraft | A320/M-SDE3FGHIRWY/LB1 |
Departure
| Time | 2026-04-19 23:38 |
|---|---|
| Airport | Adelaide International Airport (YPAD) |
Arrival
| Time | 2026-04-20 01:18 |
|---|---|
| Airport | Hobart International Airport (YMHB) |
| Time | Latitude | Longitude | Altitude | Speed | Heading |
|---|---|---|---|---|---|
| 2026-04-19 23:03 | -34.94055 | 138.53660 | 27 ft | 0 kts | 320° |
| 2026-04-19 23:27 | -34.94062 | 138.53667 | 27 ft | 3 kts | 318° |
| 2026-04-19 23:27 | -34.94077 | 138.53684 | 27 ft | 3 kts | 310° |
| 2026-04-19 23:28 | -34.94089 | 138.53704 | 27 ft | 3 kts | 300° |
| 2026-04-19 23:28 | -34.94098 | 138.53725 | 26 ft | 3 kts | 284° |
| 2026-04-19 23:28 | -34.94100 | 138.53748 | 30 ft | 3 kts | 254° |
| 2026-04-19 23:28 | -34.94095 | 138.53762 | 31 ft | 1 kts | 230° |
| 2026-04-19 23:29 | -34.94095 | 138.53763 | 31 ft | 0 kts | 230° |
| 2026-04-19 23:32 | -34.94115 | 138.53734 | 28 ft | 8 kts | 229° |
| 2026-04-19 23:32 | -34.94160 | 138.53674 | 26 ft | 11 kts | 227° |
| 2026-04-19 23:32 | -34.94233 | 138.53647 | 24 ft | 14 kts | 155° |
| 2026-04-19 23:32 | -34.94323 | 138.53613 | 24 ft | 17 kts | 231° |
| 2026-04-19 23:33 | -34.94404 | 138.53491 | 22 ft | 20 kts | 231° |
| 2026-04-19 23:33 | -34.94478 | 138.53384 | 23 ft | 17 kts | 230° |
| 2026-04-19 23:33 | -34.94521 | 138.53262 | 23 ft | 11 kts | 276° |
| 2026-04-19 23:33 | -34.94488 | 138.53172 | 23 ft | 12 kts | 299° |
| 2026-04-19 23:34 | -34.94440 | 138.53072 | 23 ft | 15 kts | 287° |
| 2026-04-19 23:34 | -34.94492 | 138.52959 | 23 ft | 18 kts | 216° |
| 2026-04-19 23:34 | -34.94597 | 138.52862 | 24 ft | 21 kts | 218° |
| 2026-04-19 23:34 | -34.94724 | 138.52741 | 20 ft | 24 kts | 218° |
| 2026-04-19 23:35 | -34.94852 | 138.52619 | 20 ft | 23 kts | 218° |
| 2026-04-19 23:35 | -34.94985 | 138.52495 | 20 ft | 25 kts | 217° |
| 2026-04-19 23:35 | -34.95111 | 138.52375 | 20 ft | 20 kts | 218° |
| 2026-04-19 23:35 | -34.95203 | 138.52288 | 21 ft | 15 kts | 217° |
| 2026-04-19 23:36 | -34.95291 | 138.52198 | 21 ft | 18 kts | 226° |
| 2026-04-19 23:36 | -34.95367 | 138.52089 | 20 ft | 18 kts | 230° |
| 2026-04-19 23:36 | -34.95452 | 138.51966 | 21 ft | 20 kts | 230° |
| 2026-04-19 23:36 | -34.95533 | 138.51849 | 23 ft | 17 kts | 230° |
| 2026-04-19 23:37 | -34.95611 | 138.51735 | 22 ft | 19 kts | 230° |
| 2026-04-19 23:37 | -34.95681 | 138.51650 | 23 ft | 15 kts | 209° |
| 2026-04-19 23:37 | -34.95784 | 138.51663 | 22 ft | 16 kts | 146° |
| 2026-04-19 23:37 | -34.95807 | 138.51796 | 20 ft | 21 kts | 60° |
| 2026-04-19 23:38 | -34.95649 | 138.52019 | 21 ft | 61 kts | 49° |
| 2026-04-19 23:38 | -34.95227 | 138.52637 | 21 ft | 125 kts | 50° |
| 2026-04-19 23:38 | -34.94556 | 138.53606 | 48 ft | 170 kts | 50° |
| 2026-04-19 23:38 | -34.93762 | 138.54702 | 688 ft | 173 kts | 49° |
| 2026-04-19 23:39 | -34.92978 | 138.55813 | 1407 ft | 175 kts | 51° |
| 2026-04-19 23:39 | -34.92201 | 138.56983 | 1991 ft | 183 kts | 54° |
| 2026-04-19 23:39 | -34.91737 | 138.58519 | 2213 ft | 212 kts | 91° |
| 2026-04-19 23:39 | -34.92173 | 138.60309 | 2587 ft | 238 kts | 117° |
| 2026-04-19 23:40 | -34.93072 | 138.62121 | 3147 ft | 259 kts | 123° |
| 2026-04-19 23:40 | -34.94104 | 138.63985 | 3933 ft | 271 kts | 124° |
| 2026-04-19 23:40 | -34.95154 | 138.65931 | 4828 ft | 279 kts | 123° |
| 2026-04-19 23:40 | -34.96190 | 138.67974 | 5718 ft | 285 kts | 121° |
| 2026-04-19 23:41 | -34.97196 | 138.70083 | 6625 ft | 291 kts | 120° |
| 2026-04-19 23:41 | -34.98184 | 138.72258 | 7576 ft | 293 kts | 120° |
| 2026-04-19 23:41 | -34.99155 | 138.74459 | 8489 ft | 296 kts | 119° |
| 2026-04-19 23:41 | -35.00122 | 138.76682 | 9429 ft | 299 kts | 118° |
| 2026-04-19 23:42 | -35.01095 | 138.78932 | 10271 ft | 304 kts | 118° |
| 2026-04-19 23:42 | -35.02123 | 138.81308 | 10564 ft | 328 kts | 118° |
| 2026-04-19 23:42 | -35.03228 | 138.83862 | 10799 ft | 351 kts | 118° |
| 2026-04-19 23:42 | -35.04389 | 138.86541 | 11310 ft | 361 kts | 119° |
| 2026-04-19 23:43 | -35.05570 | 138.89261 | 12029 ft | 365 kts | 119° |
| 2026-04-19 23:43 | -35.06603 | 138.92069 | 12782 ft | 369 kts | 111° |
| 2026-04-19 23:43 | -35.07489 | 138.95002 | 13539 ft | 371 kts | 111° |
| 2026-04-19 23:43 | -35.08387 | 138.97970 | 14291 ft | 373 kts | 111° |
| 2026-04-19 23:44 | -35.09292 | 139.00953 | 14943 ft | 376 kts | 111° |
| 2026-04-19 23:44 | -35.10201 | 139.03953 | 15570 ft | 379 kts | 111° |
| 2026-04-19 23:44 | -35.11117 | 139.06984 | 16194 ft | 382 kts | 111° |
| 2026-04-19 23:44 | -35.12041 | 139.10034 | 16820 ft | 385 kts | 112° |
| 2026-04-19 23:45 | -35.12973 | 139.13113 | 17448 ft | 388 kts | 112° |
| 2026-04-19 23:45 | -35.13910 | 139.16214 | 18093 ft | 391 kts | 112° |
| 2026-04-19 23:45 | -35.14857 | 139.19350 | 18734 ft | 395 kts | 112° |
| 2026-04-19 23:45 | -35.15811 | 139.22512 | 19310 ft | 398 kts | 112° |
| 2026-04-19 23:46 | -35.16770 | 139.25703 | 19896 ft | 402 kts | 112° |
| 2026-04-19 23:46 | -35.17721 | 139.28871 | 20480 ft | 405 kts | 112° |
| 2026-04-19 23:46 | -35.18695 | 139.32115 | 21050 ft | 408 kts | 112° |
| 2026-04-19 23:46 | -35.19677 | 139.35385 | 21583 ft | 412 kts | 112° |
| 2026-04-19 23:47 | -35.20669 | 139.38693 | 22113 ft | 415 kts | 112° |
| 2026-04-19 23:47 | -35.21658 | 139.42010 | 22619 ft | 418 kts | 112° |
| 2026-04-19 23:47 | -35.22657 | 139.45370 | 23111 ft | 421 kts | 112° |
| 2026-04-19 23:47 | -35.23688 | 139.48727 | 23588 ft | 423 kts | 116° |
| 2026-04-19 23:48 | -35.25079 | 139.51895 | 24046 ft | 423 kts | 126° |
| 2026-04-19 23:48 | -35.26871 | 139.54749 | 24442 ft | 424 kts | 132° |
| 2026-04-19 23:48 | -35.28769 | 139.57522 | 24840 ft | 426 kts | 132° |
| 2026-04-19 23:48 | -35.30665 | 139.60302 | 25241 ft | 428 kts | 132° |
| 2026-04-19 23:49 | -35.32572 | 139.63116 | 25615 ft | 430 kts | 132° |
| 2026-04-19 23:49 | -35.34481 | 139.65942 | 25996 ft | 432 kts | 131° |
| 2026-04-19 23:49 | -35.36374 | 139.68752 | 26368 ft | 434 kts | 131° |
| 2026-04-19 23:49 | -35.38302 | 139.71611 | 26753 ft | 436 kts | 132° |
| 2026-04-19 23:50 | -35.40243 | 139.74483 | 27130 ft | 438 kts | 132° |
| 2026-04-19 23:50 | -35.42187 | 139.77357 | 27516 ft | 440 kts | 132° |
| 2026-04-19 23:50 | -35.44144 | 139.80256 | 27888 ft | 442 kts | 132° |
| 2026-04-19 23:50 | -35.46109 | 139.83168 | 28251 ft | 444 kts | 132° |
| 2026-04-19 23:51 | -35.48081 | 139.86095 | 28606 ft | 446 kts | 132° |
| 2026-04-19 23:51 | -35.50063 | 139.89043 | 28953 ft | 448 kts | 132° |
| 2026-04-19 23:51 | -35.52047 | 139.91998 | 29289 ft | 450 kts | 132° |
| 2026-04-19 23:51 | -35.54046 | 139.94980 | 29624 ft | 452 kts | 132° |
| 2026-04-19 23:52 | -35.56046 | 139.97968 | 30053 ft | 452 kts | 132° |
| 2026-04-19 23:52 | -35.58038 | 140.00945 | 30521 ft | 451 kts | 132° |
| 2026-04-19 23:52 | -35.60026 | 140.03913 | 30933 ft | 449 kts | 132° |
| 2026-04-19 23:52 | -35.61986 | 140.06837 | 31328 ft | 448 kts | 132° |
| 2026-04-19 23:53 | -35.63966 | 140.09795 | 31737 ft | 448 kts | 132° |
| 2026-04-19 23:53 | -35.65938 | 140.12744 | 32148 ft | 447 kts | 132° |
| 2026-04-19 23:53 | -35.67911 | 140.15694 | 32559 ft | 446 kts | 132° |
| 2026-04-19 23:53 | -35.69877 | 140.18636 | 32975 ft | 445 kts | 132° |
| 2026-04-19 23:54 | -35.71837 | 140.21576 | 33412 ft | 444 kts | 132° |
| 2026-04-19 23:54 | -35.73791 | 140.24510 | 33839 ft | 443 kts | 132° |
| 2026-04-19 23:54 | -35.75743 | 140.27446 | 34287 ft | 442 kts | 132° |
| 2026-04-19 23:54 | -35.77681 | 140.30365 | 34662 ft | 441 kts | 132° |
| 2026-04-19 23:55 | -35.79618 | 140.33291 | 35027 ft | 440 kts | 132° |
| 2026-04-19 23:55 | -35.81549 | 140.36212 | 35379 ft | 440 kts | 132° |
| 2026-04-19 23:55 | -35.83483 | 140.39136 | 35721 ft | 440 kts | 132° |
| 2026-04-19 23:55 | -35.85415 | 140.42051 | 36056 ft | 439 kts | 132° |
| 2026-04-19 23:56 | -35.87351 | 140.44973 | 36397 ft | 439 kts | 133° |
| 2026-04-19 23:56 | -35.89275 | 140.47877 | 36720 ft | 438 kts | 133° |
| 2026-04-19 23:56 | -35.91204 | 140.50797 | 37036 ft | 438 kts | 133° |
| 2026-04-19 23:56 | -35.93103 | 140.53673 | 37294 ft | 438 kts | 133° |
| 2026-04-19 23:57 | -35.96954 | 140.59513 | 37353 ft | 440 kts | 133° |
| 2026-04-19 23:57 | -36.00817 | 140.65387 | 37363 ft | 440 kts | 133° |
| 2026-04-19 23:58 | -36.04669 | 140.71246 | 37352 ft | 440 kts | 133° |
| 2026-04-19 23:58 | -36.08520 | 140.77113 | 37353 ft | 440 kts | 133° |
| 2026-04-19 23:59 | -36.12367 | 140.82992 | 37354 ft | 440 kts | 132° |
| 2026-04-19 23:59 | -36.16213 | 140.88879 | 37369 ft | 440 kts | 133° |
| 2026-04-20 00:00 | -36.20055 | 140.94771 | 37368 ft | 440 kts | 132° |
| 2026-04-20 00:00 | -36.24394 | 140.99955 | 37365 ft | 431 kts | 149° |
| 2026-04-20 00:01 | -36.29721 | 141.03208 | 37365 ft | 426 kts | 160° |
| 2026-04-20 00:02 | -36.37918 | 141.07397 | 37370 ft | 427 kts | 160° |
| 2026-04-20 00:02 | -36.43406 | 141.10235 | 37367 ft | 428 kts | 160° |
| 2026-04-20 00:03 | -36.48898 | 141.13072 | 37374 ft | 428 kts | 160° |
| 2026-04-20 00:03 | -36.54398 | 141.15908 | 37372 ft | 428 kts | 160° |
| 2026-04-20 00:04 | -36.59888 | 141.18746 | 37370 ft | 427 kts | 160° |
| 2026-04-20 00:04 | -36.65345 | 141.21565 | 37369 ft | 427 kts | 160° |
| 2026-04-20 00:05 | -36.70835 | 141.24404 | 37363 ft | 427 kts | 160° |
| 2026-04-20 00:05 | -36.76325 | 141.27262 | 37361 ft | 427 kts | 160° |
| 2026-04-20 00:06 | -36.81811 | 141.30119 | 37359 ft | 428 kts | 160° |
| 2026-04-20 00:06 | -36.87308 | 141.32979 | 37367 ft | 428 kts | 160° |
| 2026-04-20 00:07 | -36.92807 | 141.35845 | 37371 ft | 428 kts | 160° |
| 2026-04-20 00:07 | -36.98274 | 141.38703 | 37373 ft | 428 kts | 160° |
| 2026-04-20 00:08 | -37.03775 | 141.41577 | 37373 ft | 428 kts | 160° |
| 2026-04-20 00:08 | -37.09278 | 141.44458 | 37376 ft | 429 kts | 160° |
| 2026-04-20 00:09 | -37.14772 | 141.47353 | 37370 ft | 429 kts | 160° |
| 2026-04-20 00:09 | -37.20281 | 141.50251 | 37369 ft | 429 kts | 160° |
| 2026-04-20 00:10 | -37.25780 | 141.53153 | 37369 ft | 429 kts | 160° |
| 2026-04-20 00:10 | -37.31251 | 141.56038 | 37368 ft | 429 kts | 160° |
| 2026-04-20 00:11 | -37.36564 | 141.59481 | 37367 ft | 435 kts | 148° |
| 2026-04-20 00:11 | -37.41503 | 141.63901 | 37365 ft | 435 kts | 148° |
| 2026-04-20 00:12 | -37.46441 | 141.68323 | 37363 ft | 436 kts | 148° |
| 2026-04-20 00:12 | -37.51353 | 141.72720 | 37366 ft | 436 kts | 148° |
| 2026-04-20 00:13 | -37.56294 | 141.77154 | 37367 ft | 437 kts | 148° |
| 2026-04-20 00:13 | -37.61250 | 141.81606 | 37390 ft | 437 kts | 148° |
| 2026-04-20 00:14 | -37.66203 | 141.86052 | 37384 ft | 437 kts | 148° |
| 2026-04-20 00:14 | -37.71154 | 141.90503 | 37383 ft | 437 kts | 148° |
| 2026-04-20 00:15 | -37.76113 | 141.94976 | 37379 ft | 437 kts | 148° |
| 2026-04-20 00:15 | -37.81025 | 141.99423 | 37380 ft | 437 kts | 148° |
| 2026-04-20 00:16 | -37.85971 | 142.03893 | 37384 ft | 437 kts | 148° |
| 2026-04-20 00:16 | -37.90922 | 142.08387 | 37395 ft | 437 kts | 148° |
| 2026-04-20 00:17 | -37.95837 | 142.12862 | 37380 ft | 437 kts | 148° |
| 2026-04-20 00:17 | -38.00776 | 142.17353 | 37377 ft | 437 kts | 148° |
| 2026-04-20 00:18 | -38.05718 | 142.21856 | 37376 ft | 437 kts | 148° |
| 2026-04-20 00:18 | -38.10653 | 142.26369 | 37376 ft | 437 kts | 148° |
| 2026-04-20 00:19 | -38.15595 | 142.30880 | 37386 ft | 437 kts | 148° |
| 2026-04-20 00:19 | -38.20531 | 142.35389 | 37385 ft | 436 kts | 148° |
| 2026-04-20 00:20 | -38.25419 | 142.39873 | 37379 ft | 436 kts | 148° |
| 2026-04-20 00:20 | -38.30339 | 142.44388 | 37378 ft | 436 kts | 148° |
| 2026-04-20 00:21 | -38.35254 | 142.48925 | 37373 ft | 436 kts | 148° |
| 2026-04-20 00:21 | -38.40154 | 142.53470 | 37381 ft | 436 kts | 148° |
| 2026-04-20 00:22 | -38.45065 | 142.58004 | 37387 ft | 436 kts | 148° |
| 2026-04-20 00:22 | -38.49982 | 142.62552 | 37386 ft | 436 kts | 148° |
| 2026-04-20 00:23 | -38.54861 | 142.67072 | 37377 ft | 436 kts | 148° |
| 2026-04-20 00:23 | -38.59771 | 142.71634 | 37387 ft | 436 kts | 148° |
| 2026-04-20 00:24 | -38.64675 | 142.76197 | 37382 ft | 436 kts | 148° |
| 2026-04-20 00:24 | -38.69565 | 142.80761 | 37378 ft | 435 kts | 148° |
| 2026-04-20 00:25 | -38.74463 | 142.85332 | 37387 ft | 435 kts | 148° |
| 2026-04-20 00:25 | -38.79320 | 142.89871 | 37376 ft | 435 kts | 148° |
| 2026-04-20 00:26 | -38.84211 | 142.94458 | 37373 ft | 435 kts | 148° |
| 2026-04-20 00:26 | -38.89102 | 142.99052 | 37379 ft | 435 kts | 148° |
| 2026-04-20 00:27 | -38.93910 | 143.03783 | 37378 ft | 437 kts | 146° |
| 2026-04-20 00:27 | -38.97830 | 143.07901 | 37369 ft | 437 kts | 145° |
| 2026-04-20 00:28 | -39.02506 | 143.12874 | 37360 ft | 437 kts | 146° |
| 2026-04-20 00:28 | -39.07208 | 143.17813 | 37365 ft | 437 kts | 146° |
| 2026-04-20 00:29 | -39.11899 | 143.22711 | 37360 ft | 437 kts | 146° |
| 2026-04-20 00:29 | -39.16624 | 143.27639 | 37350 ft | 437 kts | 146° |
| 2026-04-20 00:30 | -39.21338 | 143.32574 | 37371 ft | 437 kts | 146° |
| 2026-04-20 00:30 | -39.26045 | 143.37540 | 37359 ft | 436 kts | 146° |
| 2026-04-20 00:31 | -39.30746 | 143.42497 | 37376 ft | 436 kts | 146° |
| 2026-04-20 00:31 | -39.35416 | 143.47422 | 37354 ft | 437 kts | 146° |
| 2026-04-20 00:32 | -39.40124 | 143.52389 | 37345 ft | 438 kts | 146° |
| 2026-04-20 00:32 | -39.44847 | 143.57378 | 37343 ft | 438 kts | 146° |
| 2026-04-20 00:33 | -39.49567 | 143.62378 | 37364 ft | 439 kts | 146° |
| 2026-04-20 00:33 | -39.54281 | 143.67392 | 37365 ft | 438 kts | 146° |
| 2026-04-20 00:34 | -39.58992 | 143.72408 | 37359 ft | 438 kts | 146° |
| 2026-04-20 00:34 | -39.63667 | 143.77406 | 37359 ft | 438 kts | 146° |
| 2026-04-20 00:35 | -39.68365 | 143.82429 | 37362 ft | 438 kts | 146° |
| 2026-04-20 00:35 | -39.73068 | 143.87455 | 37357 ft | 438 kts | 146° |
| 2026-04-20 00:36 | -39.77773 | 143.92493 | 37355 ft | 438 kts | 146° |
| 2026-04-20 00:36 | -39.82472 | 143.97537 | 37366 ft | 438 kts | 146° |
| 2026-04-20 00:37 | -39.87131 | 144.02554 | 37362 ft | 437 kts | 146° |
| 2026-04-20 00:37 | -39.91817 | 144.07602 | 37359 ft | 437 kts | 146° |
| 2026-04-20 00:38 | -39.96498 | 144.12661 | 37370 ft | 437 kts | 146° |
| 2026-04-20 00:38 | -40.01165 | 144.17715 | 37359 ft | 437 kts | 146° |
| 2026-04-20 00:39 | -40.05843 | 144.22791 | 37354 ft | 437 kts | 146° |
| 2026-04-20 00:39 | -40.10522 | 144.27879 | 37370 ft | 438 kts | 146° |
| 2026-04-20 00:40 | -40.15175 | 144.32935 | 37367 ft | 438 kts | 146° |
| 2026-04-20 00:40 | -40.19850 | 144.38030 | 37365 ft | 438 kts | 146° |
| 2026-04-20 00:41 | -40.24522 | 144.43136 | 37369 ft | 437 kts | 146° |
| 2026-04-20 00:41 | -40.29181 | 144.48239 | 37379 ft | 437 kts | 146° |
| 2026-04-20 00:42 | -40.33852 | 144.53344 | 37370 ft | 437 kts | 146° |
| 2026-04-20 00:42 | -40.38488 | 144.58426 | 37372 ft | 437 kts | 146° |
| 2026-04-20 00:43 | -40.43147 | 144.63564 | 37383 ft | 438 kts | 146° |
| 2026-04-20 00:43 | -40.47805 | 144.68702 | 37380 ft | 437 kts | 146° |
| 2026-04-20 00:44 | -40.52460 | 144.73844 | 37379 ft | 437 kts | 146° |
| 2026-04-20 00:44 | -40.57116 | 144.78990 | 37376 ft | 437 kts | 146° |
| 2026-04-20 00:45 | -40.61762 | 144.84137 | 37387 ft | 437 kts | 146° |
| 2026-04-20 00:45 | -40.66375 | 144.89263 | 37380 ft | 437 kts | 146° |
| 2026-04-20 00:46 | -40.71020 | 144.94434 | 37382 ft | 437 kts | 146° |
| 2026-04-20 00:46 | -40.75662 | 144.99608 | 37397 ft | 437 kts | 146° |
| 2026-04-20 00:47 | -40.80305 | 145.04796 | 37391 ft | 437 kts | 146° |
| 2026-04-20 00:47 | -40.84934 | 145.09981 | 37389 ft | 437 kts | 146° |
| 2026-04-20 00:48 | -40.89520 | 145.15189 | 37391 ft | 437 kts | 145° |
| 2026-04-20 00:48 | -40.94123 | 145.20448 | 37383 ft | 437 kts | 145° |
| 2026-04-20 00:49 | -40.98730 | 145.25717 | 37381 ft | 438 kts | 145° |
| 2026-04-20 00:49 | -41.03341 | 145.30995 | 37377 ft | 438 kts | 145° |
| 2026-04-20 00:50 | -41.07949 | 145.36279 | 37392 ft | 438 kts | 145° |
| 2026-04-20 00:50 | -41.12558 | 145.41580 | 37392 ft | 438 kts | 145° |
| 2026-04-20 00:51 | -41.17135 | 145.46848 | 37395 ft | 438 kts | 145° |
| 2026-04-20 00:51 | -41.21741 | 145.52145 | 37406 ft | 438 kts | 145° |
| 2026-04-20 00:52 | -41.26332 | 145.57453 | 37399 ft | 438 kts | 145° |
| 2026-04-20 00:52 | -41.30923 | 145.62783 | 37399 ft | 438 kts | 145° |
| 2026-04-20 00:53 | -41.35514 | 145.68108 | 37394 ft | 437 kts | 145° |
| 2026-04-20 00:53 | -41.40066 | 145.73397 | 37410 ft | 437 kts | 145° |
| 2026-04-20 00:54 | -41.44641 | 145.78719 | 37403 ft | 437 kts | 145° |
| 2026-04-20 00:54 | -41.49215 | 145.84049 | 37398 ft | 436 kts | 145° |
| 2026-04-20 00:55 | -41.53782 | 145.89385 | 37406 ft | 436 kts | 145° |
| 2026-04-20 00:55 | -41.58338 | 145.94716 | 37397 ft | 436 kts | 145° |
| 2026-04-20 00:56 | -41.62887 | 146.00066 | 37386 ft | 436 kts | 145° |
| 2026-04-20 00:56 | -41.67423 | 146.05387 | 37386 ft | 437 kts | 145° |
| 2026-04-20 00:57 | -41.71979 | 146.10752 | 37371 ft | 436 kts | 145° |
| 2026-04-20 00:57 | -41.76530 | 146.16136 | 37379 ft | 436 kts | 145° |
| 2026-04-20 00:58 | -41.81063 | 146.21509 | 37372 ft | 435 kts | 145° |
| 2026-04-20 00:58 | -41.85573 | 146.26868 | 37173 ft | 437 kts | 142° |
| 2026-04-20 00:58 | -41.87608 | 146.29919 | 36894 ft | 444 kts | 133° |
| 2026-04-20 00:59 | -41.89280 | 146.33452 | 36130 ft | 455 kts | 124° |
| 2026-04-20 00:59 | -41.90731 | 146.37249 | 35250 ft | 460 kts | 123° |
| 2026-04-20 00:59 | -41.92185 | 146.41098 | 34358 ft | 463 kts | 123° |
| 2026-04-20 00:59 | -41.93643 | 146.44968 | 33224 ft | 468 kts | 123° |
| 2026-04-20 01:00 | -41.95117 | 146.48884 | 32147 ft | 471 kts | 122° |
| 2026-04-20 01:00 | -41.96604 | 146.52830 | 31081 ft | 473 kts | 122° |
| 2026-04-20 01:00 | -41.98093 | 146.56778 | 29794 ft | 477 kts | 122° |
| 2026-04-20 01:00 | -41.99599 | 146.60771 | 28409 ft | 479 kts | 122° |
| 2026-04-20 01:01 | -42.01102 | 146.64761 | 27430 ft | 475 kts | 121° |
| 2026-04-20 01:01 | -42.02575 | 146.68692 | 26634 ft | 468 kts | 121° |
| 2026-04-20 01:01 | -42.04016 | 146.72539 | 25790 ft | 464 kts | 121° |
| 2026-04-20 01:01 | -42.05479 | 146.76448 | 24932 ft | 460 kts | 121° |
| 2026-04-20 01:02 | -42.06891 | 146.80222 | 24113 ft | 457 kts | 121° |
| 2026-04-20 01:02 | -42.08315 | 146.84027 | 23177 ft | 454 kts | 120° |
| 2026-04-20 01:02 | -42.09726 | 146.87801 | 22366 ft | 448 kts | 120° |
| 2026-04-20 01:02 | -42.11116 | 146.91529 | 21566 ft | 442 kts | 120° |
| 2026-04-20 01:03 | -42.12492 | 146.95213 | 20787 ft | 437 kts | 120° |
| 2026-04-20 01:03 | -42.13850 | 146.98854 | 20044 ft | 433 kts | 119° |
| 2026-04-20 01:03 | -42.15192 | 147.02457 | 19320 ft | 430 kts | 119° |
| 2026-04-20 01:03 | -42.16573 | 147.06019 | 18635 ft | 425 kts | 124° |
| 2026-04-20 01:04 | -42.18343 | 147.09156 | 17919 ft | 418 kts | 136° |
| 2026-04-20 01:04 | -42.20449 | 147.11825 | 17260 ft | 413 kts | 140° |
| 2026-04-20 01:04 | -42.22561 | 147.14424 | 16581 ft | 410 kts | 140° |
| 2026-04-20 01:04 | -42.24626 | 147.16980 | 15900 ft | 408 kts | 140° |
| 2026-04-20 01:05 | -42.26715 | 147.19577 | 15205 ft | 406 kts | 139° |
| 2026-04-20 01:05 | -42.28785 | 147.22153 | 14483 ft | 405 kts | 139° |
| 2026-04-20 01:05 | -42.30858 | 147.24716 | 13697 ft | 404 kts | 141° |
| 2026-04-20 01:05 | -42.33128 | 147.26919 | 12845 ft | 400 kts | 151° |
| 2026-04-20 01:06 | -42.35547 | 147.28739 | 12243 ft | 393 kts | 153° |
| 2026-04-20 01:06 | -42.37850 | 147.30459 | 12056 ft | 364 kts | 153° |
| 2026-04-20 01:06 | -42.39971 | 147.32048 | 11863 ft | 334 kts | 153° |
| 2026-04-20 01:06 | -42.41927 | 147.33514 | 11649 ft | 311 kts | 153° |
| 2026-04-20 01:07 | -42.43764 | 147.34891 | 11112 ft | 302 kts | 153° |
| 2026-04-20 01:07 | -42.45591 | 147.36258 | 10534 ft | 298 kts | 153° |
| 2026-04-20 01:07 | -42.47390 | 147.37601 | 10131 ft | 289 kts | 153° |
| 2026-04-20 01:07 | -42.49160 | 147.38929 | 10024 ft | 293 kts | 153° |
| 2026-04-20 01:08 | -42.50950 | 147.40272 | 9690 ft | 294 kts | 153° |
| 2026-04-20 01:08 | -42.52732 | 147.41608 | 9368 ft | 291 kts | 153° |
| 2026-04-20 01:08 | -42.54493 | 147.42931 | 9074 ft | 289 kts | 153° |
| 2026-04-20 01:08 | -42.56243 | 147.44245 | 8761 ft | 287 kts | 153° |
| 2026-04-20 01:09 | -42.57981 | 147.45552 | 8460 ft | 285 kts | 153° |
| 2026-04-20 01:09 | -42.59648 | 147.47005 | 8157 ft | 284 kts | 142° |
| 2026-04-20 01:09 | -42.61153 | 147.48723 | 7852 ft | 282 kts | 141° |
| 2026-04-20 01:09 | -42.62652 | 147.50432 | 7560 ft | 281 kts | 141° |
| 2026-04-20 01:10 | -42.64148 | 147.52132 | 7265 ft | 279 kts | 141° |
| 2026-04-20 01:10 | -42.67083 | 147.55463 | 6684 ft | 275 kts | 141° |
| 2026-04-20 01:10 | -42.68547 | 147.57125 | 6383 ft | 274 kts | 141° |
| 2026-04-20 01:11 | -42.70006 | 147.58786 | 6095 ft | 272 kts | 141° |
| 2026-04-20 01:11 | -42.71446 | 147.60426 | 5796 ft | 270 kts | 141° |
| 2026-04-20 01:11 | -42.72889 | 147.62069 | 5490 ft | 269 kts | 141° |
| 2026-04-20 01:11 | -42.74316 | 147.63693 | 5179 ft | 267 kts | 141° |
| 2026-04-20 01:12 | -42.75710 | 147.65283 | 4873 ft | 255 kts | 141° |
| 2026-04-20 01:12 | -42.77030 | 147.66795 | 4584 ft | 242 kts | 141° |
| 2026-04-20 01:12 | -42.78282 | 147.68231 | 4312 ft | 228 kts | 141° |
| 2026-04-20 01:12 | -42.79451 | 147.69570 | 4058 ft | 217 kts | 141° |
| 2026-04-20 01:13 | -42.80656 | 147.70672 | 3825 ft | 204 kts | 161° |
| 2026-04-20 01:13 | -42.82011 | 147.70897 | 3628 ft | 195 kts | 187° |
| 2026-04-20 01:13 | -42.83255 | 147.70238 | 3334 ft | 192 kts | 214° |
| 2026-04-20 01:13 | -42.84335 | 147.69187 | 3075 ft | 188 kts | 214° |
| 2026-04-20 01:14 | -42.85389 | 147.68170 | 2825 ft | 184 kts | 214° |
| 2026-04-20 01:14 | -42.86428 | 147.67173 | 2587 ft | 182 kts | 214° |
| 2026-04-20 01:14 | -42.87420 | 147.66145 | 2346 ft | 175 kts | 222° |
| 2026-04-20 01:14 | -42.88191 | 147.64919 | 2120 ft | 166 kts | 232° |
| 2026-04-20 01:15 | -42.88709 | 147.63560 | 1892 ft | 158 kts | 250° |
| 2026-04-20 01:15 | -42.88938 | 147.62155 | 1694 ft | 146 kts | 262° |
| 2026-04-20 01:15 | -42.88958 | 147.60817 | 1515 ft | 139 kts | 273° |
| 2026-04-20 01:15 | -42.88800 | 147.59528 | 1340 ft | 137 kts | 284° |
| 2026-04-20 01:16 | -42.88475 | 147.58331 | 1153 ft | 135 kts | 295° |
| 2026-04-20 01:16 | -42.87983 | 147.57230 | 944 ft | 134 kts | 306° |
| 2026-04-20 01:16 | -42.87385 | 147.56295 | 766 ft | 132 kts | 314° |
| 2026-04-20 01:16 | -42.86732 | 147.55422 | 665 ft | 132 kts | 315° |
| 2026-04-20 01:17 | -42.86080 | 147.54546 | 497 ft | 130 kts | 313° |
| 2026-04-20 01:17 | -42.85447 | 147.53663 | 327 ft | 130 kts | 313° |
| 2026-04-20 01:17 | -42.84802 | 147.52796 | 120 ft | 130 kts | 314° |
| 2026-04-20 01:17 | -42.84181 | 147.51943 | 31 ft | 118 kts | 315° |
| 2026-04-20 01:18 | -42.83710 | 147.51306 | 23 ft | 71 kts | 315° |
| 2026-04-20 01:18 | -42.83448 | 147.50951 | 22 ft | 35 kts | 315° |
| 2026-04-20 01:18 | -42.83328 | 147.50788 | 23 ft | 22 kts | 312° |
| 2026-04-20 01:18 | -42.83325 | 147.50638 | 22 ft | 17 kts | 230° |
| 2026-04-20 01:19 | -42.83410 | 147.50543 | 23 ft | 9 kts | 186° |
| 2026-04-20 01:19 | -42.83453 | 147.50578 | 23 ft | 9 kts | 130° |
| 2026-04-20 01:19 | -42.83501 | 147.50652 | 23 ft | 11 kts | 134° |
| 2026-04-20 01:19 | -42.83562 | 147.50707 | 22 ft | 2 kts | 180° |
| 2026-04-20 01:20 | -42.83586 | 147.50692 | 22 ft | 6 kts | 218° |
| 2026-04-20 01:20 | -42.83629 | 147.50665 | 23 ft | 8 kts | 177° |
| 2026-04-20 01:20 | -42.83668 | 147.50704 | 23 ft | 0 kts | 133° |
| 2026-04-20 01:20 | -42.83673 | 147.50709 | 23 ft | 0 kts | 141° |
| 2026-04-20 01:21 | -42.83676 | 147.50707 | 22 ft | 0 kts | 175° |
| 2026-04-20 01:21 | -42.83682 | 147.50702 | 22 ft | 3 kts | 208° |
| 2026-04-20 01:21 | -42.83704 | 147.50676 | 22 ft | 6 kts | 223° |
| 2026-04-20 01:22 | -42.83713 | 147.50664 | 23 ft | 0 kts | 224° |